METAR Data
IDs: Format: Raw Decoded Include TAF

Data at: 0720 UTC 23 Feb 2019

PAWG 230656Z 07011G20KT 10SM CLR 00/M08 A3003 RMK AO2 SLP169 T00001078
PAWG 230556Z 06014G20KT 10SM CLR 01/M08 A3000
PAWG 230456Z 07015G21KT 10SM CLR 01/M08 A2997 RMK AO2 SLP149 T00061083
PAWG 230356Z 07015G22KT 10SM CLR 01/M08 A2994
PAWG 230256Z 08016G20KT 10SM FEW050 02/M07 A2991 RMK AO2 SLP129 T00171072 53029
PAWG 230156Z 06013G21KT 10SM FEW025 FEW150 03/M06 A2987 RMK AO2 SLP116 T00281056
PAWG 230056Z 05008G15KT 10SM FEW055 FEW150 03/M06 A2985 RMK AO2 SLP108 T00331056
PAWG 222356Z 06010G19KT 10SM FEW055 FEW150 04/M06 A2982 RMK AO2 SLP099 T00441056 10050 20017 51024
PAWG 222256Z 07009KT 10SM FEW055 FEW150 04/M04 A2980 RMK AO2 SLP093 T00441044
PAWG 222156Z 29004KT 10SM FEW040 FEW120 04/M03 A2978 RMK AO2 SLP084 T00391028
PAWG 222056Z 33006KT 10SM FEW040 FEW120 04/M02 A2975 RMK AO2 SLP076 T00391017 51026
PAWG 221856Z 31007KT 10SM FEW040 SCT120 02/M01 A2971 RMK AO2 SLP060 T00171011
PAWG 221756Z 00000KT 10SM FEW010 FEW050 SCT120 02/M01 A2967 RMK AO2 SLP049 60000 T00171006 10022 21006 51024
PAWG 221656Z 32009KT 10SM FEW010 FEW050 SCT120 02/01 A2966
PAWG 221556Z 31009KT 10SM FEW045 01/00 A2963
PAWG 221456Z VRB05KT 10SM FEW080 01/00 A2960
PAWG 221454Z 31006KT 10SM BKN011 01/00 A2960 RMK AO2 CIG 008V013
PAWG 221256Z AUTO 07005KT 10SM OVC036 02/01 A2955 RMK AO2 RAB03E18 SLP007 P0000 T00220011 FZRANO TSNO
PAWG 221223Z AUTO 00000KT 10SM SCT010 BKN034 OVC046 02/01 A2954 RMK AO2 RAB03E18 P0000 FZRANO TSNO
PAWG 221156Z AUTO 00000KT 10SM OVC010 01/00 A2954 RMK AO2 SLP002 60005 70023 T00110000 10022 20011 53013 FZRANO TSNO
PAWG 221056Z AUTO 09008KT 10SM FEW010 OVC044 01/00 A2952 RMK AO2 SLP996 T00110000 FZRANO TSNO
PAWG 220847Z AUTO 00000KT 10SM BKN014 OVC043 02/01 A2950 RMK AO2 RAE40 P0001 FZRANO TSNO
PAWG 220837Z AUTO 22003KT 10SM -RA SCT012 BKN016 OVC044 02/01 A2950 RMK AO2 P0001 FZRANO TSNO
PAWG 220756Z AUTO VRB04KT 10SM -RA BKN015 OVC025 02/01 A2949 RMK AO2 RAB00 SLP986 P0001 T00170006 FZRANO TSNO
PAWG 220656Z 00000KT 10SM BKN015 OVC025 02/01 A2950 RMK AO2 RAE30UPB41E48 SLP989 P0002 T00170006
PAWG 220556Z 06007KT 10SM -RA BKN030 OVC040 02/01 A2949 RMK AO2 RAB11SNE50 SLP988 P0001 60010 T00170006 10028 20011 56007
PAWG 220456Z 06003KT 7SM -SN OVC030 01/M01 A2950 RMK AO2 RAB22E52SNB52 SLP990 P0002 T00111006
PAWG 220356Z 08012G17KT 10SM BKN050 BKN070 03/01 A2950 RMK AO2 SLP990 P0001 T00280006
PAWG 220256Z 00000KT 10SM BKN030 BKN050 02/00 A2951 RMK AO2 SLP995 P0002 60006 T00170000 58015
PAWG 220155Z 13004KT 10SM SCT015 BKN025 OVC030 02/01 A2953
PAWG 220056Z 00000KT 4SM -RASN BR OVC015 02/00 A2954 RMK AO2 UPB48E49SNB32E45B49 SLP004 PRES FR P0002 T00170000
PAWG 212355Z 10013G20KT 9SM -RA BKN015 OVC020 02/01 A2956 RMK PRESFR
PAWG 212255Z 10013KT 7SM -RA SCT005 BKN020 OVC030 02/01 A2961
PAWG 212156Z 09015KT 7SM -RA SCT005 BKN020 OVC030 02/01 A2966
PAWG 212056Z 09015G23KT 7SM -RA SCT005 BKN020 OVC030 02/01 A2971 RMK PRES FR
PAWG 212053Z 09016G23KT 7SM -RA OVC030 02/01 A2972 RMK AO2 SNE28 P0001
PAWG 211956Z 09014G22KT 7SM SNRA BKN017 OVC024 02/01 A2977 RMK PRES FR